createdAt,value
2022-09-06T00:01:14.852Z,100773.06
2022-09-06T00:04:17.612Z,100767.75
2022-09-06T00:07:19.853Z,100767.75
2022-09-06T00:10:22.587Z,100770.38
2022-09-06T00:13:24.805Z,100771.25
2022-09-06T00:16:30.506Z,100773.03
2022-09-06T00:19:32.929Z,100772.97
2022-09-06T00:22:36.522Z,100767.66
2022-09-06T00:25:38.804Z,100768.53
2022-09-06T00:28:41.544Z,100770.28
2022-09-06T00:31:43.787Z,100769.41
2022-09-06T00:34:46.556Z,100770.28
2022-09-06T00:37:48.764Z,100779.97
2022-09-06T00:40:51.455Z,100778.22
2022-09-06T00:43:54.667Z,100776.41
2022-09-06T00:46:57.383Z,100766.69
2022-09-06T00:50:00.271Z,100769.37
2022-09-06T00:53:03.149Z,100774.66
2022-09-06T00:56:05.951Z,100774.66
2022-09-06T00:59:08.687Z,100766.72
2022-09-06T01:02:11.517Z,100765.78
2022-09-06T01:05:14.828Z,100772.84
2022-09-06T01:08:24.248Z,100775.47
2022-09-06T01:11:45.983Z,100775.47
2022-09-06T01:14:59.644Z,100779.91
2022-09-06T01:18:05.991Z,100770.19
2022-09-06T01:21:08.310Z,100767.53
2022-09-06T01:24:11.002Z,100771.91
2022-09-06T01:27:13.252Z,100780.72
2022-09-06T01:30:18.259Z,100771.00
2022-09-06T01:33:25.384Z,100774.56
2022-09-06T01:36:32.756Z,100785.16
2022-09-06T01:39:36.313Z,100771.91
2022-09-06T01:42:40.582Z,100778.06
2022-09-06T01:45:46.033Z,100772.75
2022-09-06T01:48:54.653Z,100770.09
2022-09-06T01:52:12.238Z,100772.75
2022-09-06T01:55:20.484Z,100769.19
2022-09-06T01:58:37.180Z,100766.56
2022-09-06T02:01:39.951Z,100772.72
2022-09-06T02:04:57.186Z,100757.75
2022-09-06T02:08:08.016Z,100759.50
2022-09-06T02:11:11.104Z,100764.78
2022-09-06T02:14:16.779Z,100761.22
2022-09-06T02:17:21.487Z,100768.25
2022-09-06T02:20:25.951Z,100763.81
2022-09-06T02:23:30.154Z,100761.12
2022-09-06T02:26:35.376Z,100758.44
2022-09-06T02:29:37.981Z,100758.47
2022-09-06T02:32:44.436Z,100757.50
2022-09-06T02:35:52.635Z,100752.22
2022-09-06T02:38:55.122Z,100759.22
2022-09-06T02:41:57.988Z,100755.69
2022-09-06T02:45:00.385Z,100752.13
2022-09-06T02:48:02.957Z,100753.00
2022-09-06T02:51:05.968Z,100754.72
2022-09-06T02:54:09.065Z,100757.34
2022-09-06T02:57:11.453Z,100759.94
2022-09-06T03:00:14.197Z,100751.97
2022-09-06T03:03:16.692Z,100753.69
2022-09-06T03:06:19.220Z,100753.66
2022-09-06T03:09:21.606Z,100751.00
2022-09-06T03:12:24.114Z,100743.03
2022-09-06T03:15:26.627Z,100746.56
2022-09-06T03:18:30.537Z,100751.84
2022-09-06T03:21:32.969Z,100748.31
2022-09-06T03:24:35.442Z,100752.72
2022-09-06T03:27:37.939Z,100756.19
2022-09-06T03:30:40.761Z,100751.75
2022-09-06T03:33:43.272Z,100749.09
2022-09-06T03:36:45.761Z,100747.31
2022-09-06T03:39:48.406Z,100750.81
2022-09-06T03:42:50.957Z,100756.06
2022-09-06T03:45:55.017Z,100749.88
2022-09-06T03:48:58.378Z,100745.47
2022-09-06T03:52:01.013Z,100749.88
2022-09-06T03:55:04.007Z,100752.53
2022-09-06T03:58:06.394Z,100750.75
2022-09-06T04:01:09.893Z,100761.34
2022-09-06T04:04:12.748Z,100761.34
2022-09-06T04:07:14.951Z,100770.09
2022-09-06T04:10:17.757Z,100756.91
2022-09-06T04:13:20.784Z,100750.72
2022-09-06T04:16:23.513Z,100750.72
2022-09-06T04:19:25.778Z,100750.72
2022-09-06T04:22:28.516Z,100753.38
2022-09-06T04:25:30.819Z,100757.78
2022-09-06T04:28:33.559Z,100756.00
2022-09-06T04:31:35.940Z,100764.84
2022-09-06T04:34:38.811Z,100771.00
2022-09-06T04:37:41.567Z,100767.50
2022-09-06T04:40:44.331Z,100770.16
2022-09-06T04:43:46.588Z,100771.03
2022-09-06T04:46:49.279Z,100774.62
2022-09-06T04:49:51.465Z,100778.12
2022-09-06T04:52:54.138Z,100771.09
2022-09-06T04:55:57.100Z,100765.00
2022-09-06T04:58:59.769Z,100761.47
2022-09-06T05:02:02.045Z,100759.72
2022-09-06T05:05:05.336Z,100754.47
2022-09-06T05:08:07.664Z,100756.25
2022-09-06T05:11:11.219Z,100743.91
2022-09-06T05:14:13.398Z,100754.50
2022-09-06T05:17:16.390Z,100758.06
2022-09-06T05:20:19.124Z,100760.72
2022-09-06T05:23:22.156Z,100768.66
2022-09-06T05:26:24.452Z,100765.16
2022-09-06T05:29:30.505Z,100768.66
2022-09-06T05:32:32.961Z,100763.38
2022-09-06T05:35:36.052Z,100769.59
2022-09-06T05:38:38.386Z,100766.06
2022-09-06T05:41:41.087Z,100759.03
2022-09-06T05:44:43.332Z,100765.25
2022-09-06T05:47:46.167Z,100767.03
2022-09-06T05:50:48.419Z,100771.50
2022-09-06T05:53:51.151Z,100764.50
2022-09-06T05:56:54.205Z,100767.16
2022-09-06T05:59:56.580Z,100761.88
2022-09-06T06:02:59.054Z,100771.69
2022-09-06T06:06:01.845Z,100769.97
2022-09-06T06:09:04.163Z,100762.03
2022-09-06T06:12:06.975Z,100764.72
2022-09-06T06:15:09.342Z,100765.69
2022-09-06T06:18:12.110Z,100768.38
2022-09-06T06:21:19.209Z,100765.78
2022-09-06T06:24:22.296Z,100768.47
2022-09-06T06:27:24.516Z,100771.25
2022-09-06T06:30:27.413Z,100764.19
2022-09-06T06:33:29.711Z,100769.50
2022-09-06T06:36:33.886Z,100770.41
2022-09-06T06:39:36.957Z,100764.25
2022-09-06T06:42:40.105Z,100764.25
2022-09-06T06:45:42.458Z,100761.59
2022-09-06T06:48:45.980Z,100760.72
2022-09-06T06:51:48.277Z,100764.25
2022-09-06T06:54:51.118Z,100770.41
2022-09-06T06:57:53.760Z,100770.34
2022-09-06T07:00:56.721Z,100768.50
2022-09-06T07:03:59.146Z,100771.06
2022-09-06T07:13:34.858Z,100781.16
2022-09-06T07:16:37.332Z,100772.06
2022-09-06T07:26:29.403Z,100775.69
2022-09-06T07:29:31.657Z,100778.91
2022-09-06T07:32:34.674Z,100778.59
2022-09-06T07:35:36.962Z,100782.66
2022-09-06T07:38:40.526Z,100772.94
2022-09-06T07:41:43.291Z,100773.78
2022-09-06T07:44:46.029Z,100773.78
2022-09-06T07:48:00.550Z,100766.91
2022-09-06T07:51:11.344Z,100769.91
2022-09-06T07:54:29.959Z,100770.09
2022-09-06T07:57:33.415Z,100767.88
2022-09-06T08:00:35.718Z,100772.34
2022-09-06T08:03:38.440Z,100770.56
2022-09-06T08:10:05.858Z,100764.03
2022-09-06T08:13:08.098Z,100765.22
2022-09-06T08:16:11.728Z,100768.50
2022-09-06T08:19:14.177Z,100766.44
2022-09-06T08:22:16.901Z,100759.53
2022-09-06T08:25:19.123Z,100760.56
2022-09-06T08:28:24.525Z,100759.63
2022-09-06T08:31:30.464Z,100751.47
2022-09-06T08:34:33.497Z,100747.53
2022-09-06T08:37:35.728Z,100748.00
2022-09-06T08:40:39.624Z,100744.25
2022-09-06T08:47:16.250Z,100744.16
2022-09-06T08:50:19.037Z,100743.03
2022-09-06T08:53:21.935Z,100746.47
2022-09-06T08:56:27.406Z,100736.00
2022-09-06T08:59:35.916Z,100741.34
2022-09-06T09:02:45.527Z,100738.31
2022-09-06T09:05:51.868Z,100737.75
2022-09-06T09:09:02.374Z,100720.12
2022-09-06T09:12:05.716Z,100724.56
2022-09-06T09:15:10.588Z,100727.41
2022-09-06T09:18:14.268Z,100727.56
2022-09-06T09:21:19.549Z,100722.69
2022-09-06T09:24:22.716Z,100717.81
2022-09-06T09:27:27.072Z,100712.88
2022-09-06T09:33:48.463Z,100703.09
2022-09-06T09:40:34.122Z,100693.75
2022-09-06T09:43:36.858Z,100691.16
2022-09-06T09:46:39.936Z,100682.47
2022-09-06T09:49:42.785Z,100678.06
2022-09-06T09:52:45.054Z,100681.47
2022-09-06T09:55:48.565Z,100678.84
2022-09-06T09:58:53.481Z,100662.84
2022-09-06T10:02:01.428Z,100664.88
2022-09-06T10:05:17.514Z,100657.94
2022-09-06T10:08:22.049Z,100660.22
2022-09-06T10:11:37.974Z,100659.34
2022-09-06T10:14:44.964Z,100647.47
2022-09-06T10:17:48.896Z,100642.25
2022-09-06T10:20:54.883Z,100638.56
2022-09-06T10:24:27.442Z,100632.22
2022-09-06T10:27:31.098Z,100630.63
2022-09-06T10:30:35.954Z,100633.19
2022-09-06T10:33:56.747Z,100626.63
2022-09-06T10:36:59.252Z,100616.63
2022-09-06T10:40:12.200Z,100617.59
2022-09-06T10:43:17.839Z,100625.03
2022-09-06T10:46:22.188Z,100610.13
2022-09-06T10:49:24.710Z,100609.25
2022-09-06T10:52:32.912Z,100600.44
2022-09-06T10:55:40.132Z,100598.31
2022-09-06T11:02:17.106Z,100600.44
2022-09-06T11:05:38.666Z,100600.31
2022-09-06T11:12:01.573Z,100607.34
2022-09-06T11:15:06.642Z,100592.84
2022-09-06T11:18:11.896Z,100589.47
2022-09-06T11:21:36.177Z,100587.34
2022-09-06T11:24:57.590Z,100579.34
2022-09-06T11:28:02.324Z,100577.94
2022-09-06T11:31:05.789Z,100568.03
2022-09-06T11:34:18.799Z,100557.47
2022-09-06T11:37:32.793Z,100560.81
2022-09-06T11:40:41.570Z,100565.44
2022-09-06T11:43:47.054Z,100562.72
2022-09-06T11:46:49.791Z,100559.53
2022-09-06T11:49:52.536Z,100554.81
2022-09-06T11:52:54.984Z,100547.66
2022-09-06T11:56:00.502Z,100547.06
2022-09-06T11:59:12.028Z,100546.72
2022-09-06T12:02:33.691Z,100542.53
2022-09-06T12:05:55.293Z,100541.50
2022-09-06T12:08:58.504Z,100531.78
2022-09-06T12:12:01.464Z,100531.41
2022-09-06T12:15:22.466Z,100520.00
2022-09-06T12:18:43.107Z,100515.94
2022-09-06T12:21:47.540Z,100521.03
2022-09-06T12:24:51.460Z,100512.53
2022-09-06T12:27:56.404Z,100513.94
2022-09-06T12:30:59.594Z,100508.88
2022-09-06T12:34:07.911Z,100499.47
2022-09-06T12:37:11.130Z,100489.09
2022-09-06T12:40:14.424Z,100480.47
2022-09-06T12:43:17.522Z,100471.13
2022-09-06T12:46:20.097Z,100475.00
2022-09-06T12:49:23.546Z,100471.56
2022-09-06T12:52:25.940Z,100469.44
2022-09-06T12:55:33.519Z,100464.84
2022-09-06T12:58:36.497Z,100462.44
2022-09-06T13:01:39.171Z,100461.53
2022-09-06T13:04:42.770Z,100459.25
2022-09-06T13:07:47.588Z,100452.28
2022-09-06T13:10:50.189Z,100439.66
2022-09-06T13:13:54.128Z,100437.06
2022-09-06T13:16:59.969Z,100438.72
2022-09-06T13:20:13.799Z,100426.94
2022-09-06T13:23:20.860Z,100420.81
2022-09-06T13:26:34.650Z,100423.47
2022-09-06T13:29:39.825Z,100423.94
2022-09-06T13:32:46.692Z,100415.59
2022-09-06T13:35:50.900Z,100402.97
2022-09-06T13:38:53.616Z,100410.94
2022-09-06T13:41:56.828Z,100417.59
2022-09-06T13:45:15.207Z,100414.13
2022-09-06T13:48:28.702Z,100412.66
2022-09-06T13:51:32.119Z,100407.44
2022-09-06T13:54:34.848Z,100398.72
2022-09-06T13:57:37.386Z,100398.16
2022-09-06T14:00:41.257Z,100403.69
2022-09-06T14:03:43.852Z,100404.66
2022-09-06T14:06:46.858Z,100383.66
2022-09-06T14:09:51.188Z,100390.63
2022-09-06T14:12:53.832Z,100394.19
2022-09-06T14:15:56.464Z,100392.47
2022-09-06T14:18:59.177Z,100381.69
2022-09-06T14:22:02.208Z,100381.53
2022-09-06T14:25:04.871Z,100380.88
2022-09-06T14:28:07.797Z,100375.63
2022-09-06T14:31:14.693Z,100382.19
2022-09-06T14:34:17.259Z,100378.06
2022-09-06T14:37:21.651Z,100374.62
2022-09-06T14:40:24.178Z,100384.84
2022-09-06T14:43:26.619Z,100377.91
2022-09-06T14:46:29.982Z,100374.28
2022-09-06T14:49:32.945Z,100367.03
2022-09-06T14:52:35.865Z,100370.91
2022-09-06T14:55:39.700Z,100374.59
2022-09-06T14:58:42.901Z,100367.84
2022-09-06T15:01:45.887Z,100367.16
2022-09-06T15:04:49.067Z,100374.56
2022-09-06T15:07:51.561Z,100371.03
2022-09-06T15:10:55.032Z,100380.94
2022-09-06T15:13:58.536Z,100377.16
2022-09-06T15:17:03.131Z,100382.97
2022-09-06T15:20:06.014Z,100381.34
2022-09-06T15:23:24.706Z,100387.94
2022-09-06T15:26:27.681Z,100379.25
2022-09-06T15:29:30.205Z,100387.59
2022-09-06T15:32:32.591Z,100390.16
2022-09-06T15:35:35.104Z,100391.56
2022-09-06T15:38:41.744Z,100395.88
2022-09-06T15:41:44.431Z,100394.72
2022-09-06T15:44:47.153Z,100388.94
2022-09-06T15:47:49.858Z,100389.13
2022-09-06T15:50:52.484Z,100390.41
2022-09-06T15:53:55.557Z,100397.03
2022-09-06T15:56:58.129Z,100395.59
2022-09-06T16:00:00.733Z,100389.59
2022-09-06T16:03:03.216Z,100389.69
2022-09-06T16:09:26.799Z,100393.69
2022-09-06T16:12:29.286Z,100408.00
2022-09-06T16:15:31.948Z,100419.53
2022-09-06T16:18:35.323Z,100424.03
2022-09-06T16:21:38.940Z,100437.22
2022-09-06T16:24:41.398Z,100435.94
2022-09-06T16:27:43.883Z,100434.38
2022-09-06T16:30:46.439Z,100436.19
2022-09-06T16:33:50.215Z,100434.72
2022-09-06T16:36:53.243Z,100437.53
2022-09-06T16:39:56.061Z,100433.91
2022-09-06T16:42:58.631Z,100436.56
2022-09-06T16:46:02.452Z,100421.59
2022-09-06T16:49:05.981Z,100423.50
2022-09-06T16:52:08.515Z,100422.16
2022-09-06T16:55:11.324Z,100416.81
2022-09-06T16:58:17.241Z,100420.63
2022-09-06T17:01:20.042Z,100417.28
2022-09-06T17:04:23.393Z,100410.19
2022-09-06T17:07:25.904Z,100411.06
2022-09-06T17:10:28.320Z,100416.69
2022-09-06T17:13:31.077Z,100417.44
2022-09-06T17:16:52.363Z,100421.22
2022-09-06T17:19:55.117Z,100429.25
2022-09-06T17:22:57.496Z,100441.91
2022-09-06T17:26:00.448Z,100444.50
2022-09-06T17:29:03.202Z,100437.63
2022-09-06T17:32:09.982Z,100440.47
2022-09-06T17:35:12.746Z,100442.12
2022-09-06T17:38:16.318Z,100451.78
2022-09-06T17:41:21.675Z,100453.91
2022-09-06T17:44:25.526Z,100453.97
2022-09-06T17:47:28.113Z,100458.53
2022-09-06T17:50:31.546Z,100454.03
2022-09-06T17:53:34.985Z,100455.88
2022-09-06T17:56:37.624Z,100467.53
2022-09-06T17:59:40.396Z,100471.91
2022-09-06T18:02:42.986Z,100466.59
2022-09-06T18:05:45.785Z,100460.41
2022-09-06T18:08:49.108Z,100457.75
2022-09-06T18:11:51.912Z,100455.13
2022-09-06T18:14:54.240Z,100450.72
2022-09-06T18:17:58.009Z,100459.59
2022-09-06T18:21:01.621Z,100457.00
2022-09-06T18:24:04.890Z,100456.12
2022-09-06T18:27:07.155Z,100466.94
2022-09-06T18:30:14.657Z,100466.03
2022-09-06T18:33:17.783Z,100466.12
2022-09-06T18:36:20.636Z,100468.72
2022-09-06T18:39:22.891Z,100472.59
2022-09-06T18:42:25.663Z,100474.50
2022-09-06T18:45:28.489Z,100469.22
2022-09-06T18:48:32.906Z,100471.06
2022-09-06T18:51:35.320Z,100473.69
2022-09-06T18:54:38.085Z,100472.81
2022-09-06T18:57:40.353Z,100465.72
2022-09-06T19:00:43.177Z,100473.72
2022-09-06T19:03:45.520Z,100479.12
2022-09-06T19:06:48.429Z,100477.37
2022-09-06T19:09:50.664Z,100483.72
2022-09-06T19:12:53.547Z,100482.03
2022-09-06T19:15:56.667Z,100469.66
2022-09-06T19:19:03.687Z,100473.22
2022-09-06T19:22:05.953Z,100481.22
2022-09-06T19:25:10.298Z,100468.84
2022-09-06T19:28:12.563Z,100467.94
2022-09-06T19:31:18.591Z,100471.47
2022-09-06T19:34:21.038Z,100473.31
2022-09-06T19:37:24.604Z,100471.56
2022-09-06T19:40:26.895Z,100469.81
2022-09-06T19:43:30.124Z,100463.66
2022-09-06T19:46:32.516Z,100471.69
2022-09-06T19:49:35.295Z,100475.28
2022-09-06T19:52:37.535Z,100462.91
2022-09-06T19:55:40.547Z,100455.00
2022-09-06T19:58:43.402Z,100447.03
2022-09-06T20:01:46.735Z,100444.41
2022-09-06T20:04:49.379Z,100445.34
2022-09-06T20:07:51.865Z,100446.22
2022-09-06T20:10:55.487Z,100443.59
2022-09-06T20:13:59.015Z,100437.44
2022-09-06T20:17:29.302Z,100445.41
2022-09-06T20:20:24.829Z,100441.88
2022-09-06T20:23:28.897Z,100444.56
2022-09-06T20:26:31.378Z,100448.09
2022-09-06T20:29:33.847Z,100449.91
2022-09-06T20:32:36.456Z,100455.22
2022-09-06T20:35:39.031Z,100452.56
2022-09-06T20:38:42.626Z,100449.94
2022-09-06T20:41:45.782Z,100452.66
2022-09-06T20:44:49.225Z,100447.34
2022-09-06T20:47:52.303Z,100444.69
2022-09-06T20:51:04.956Z,100440.25
2022-09-06T20:54:07.650Z,100457.06
2022-09-06T20:57:10.160Z,100453.53
2022-09-06T21:00:14.483Z,100463.28
2022-09-06T21:03:17.103Z,100462.38
2022-09-06T21:06:20.572Z,100459.78
2022-09-06T21:09:23.032Z,100454.47
2022-09-06T21:12:25.572Z,100442.06
2022-09-06T21:15:28.420Z,100447.41
2022-09-06T21:18:31.792Z,100446.53
2022-09-06T21:21:34.972Z,100441.19
2022-09-06T21:24:37.464Z,100434.13
2022-09-06T21:27:39.883Z,100443.00
2022-09-06T21:30:42.353Z,100440.34
2022-09-06T21:33:48.837Z,100435.03
2022-09-06T21:36:51.310Z,100440.34
2022-09-06T21:39:53.843Z,100432.38
2022-09-06T21:42:56.454Z,100438.56
2022-09-06T21:46:02.852Z,100440.34
2022-09-06T21:49:07.411Z,100433.25
2022-09-06T21:52:10.395Z,100433.25
2022-09-06T21:55:15.571Z,100432.41
2022-09-06T21:58:18.309Z,100433.28
2022-09-06T22:01:21.559Z,100428.91
2022-09-06T22:04:24.431Z,100428.03
2022-09-06T22:07:26.628Z,100430.72
2022-09-06T22:10:29.655Z,100435.19
2022-09-06T22:13:32.076Z,100435.19
2022-09-06T22:16:36.913Z,100438.72
2022-09-06T22:19:39.520Z,100438.75
2022-09-06T22:22:45.834Z,100437.84
2022-09-06T22:25:48.066Z,100435.19
2022-09-06T22:28:54.886Z,100432.53
2022-09-06T22:31:57.757Z,100434.34
2022-09-06T22:35:00.520Z,100429.91
2022-09-06T22:38:02.720Z,100432.63
2022-09-06T22:41:05.474Z,100434.41
2022-09-06T22:44:08.155Z,100430.00
2022-09-06T22:47:11.215Z,100433.56
2022-09-06T22:50:13.463Z,100434.44
2022-09-06T22:53:16.174Z,100434.50
2022-09-06T22:56:18.459Z,100425.62
2022-09-06T22:59:21.366Z,100426.56
2022-09-06T23:02:23.563Z,100422.09
2022-09-06T23:05:26.248Z,100423.03
2022-09-06T23:08:29.227Z,100422.19
2022-09-06T23:11:32.609Z,100418.62
2022-09-06T23:14:35.256Z,100420.41
2022-09-06T23:17:37.951Z,100412.50
2022-09-06T23:20:40.507Z,100419.56
2022-09-06T23:23:43.255Z,100419.59
2022-09-06T23:26:45.451Z,100412.53
2022-09-06T23:29:48.176Z,100414.31
2022-09-06T23:32:50.415Z,100413.44
2022-09-06T23:35:56.211Z,100416.97
2022-09-06T23:38:58.602Z,100420.50
2022-09-06T23:42:02.374Z,100410.81
2022-09-06T23:45:05.990Z,100401.09
2022-09-06T23:48:08.721Z,100407.25
2022-09-06T23:51:11.431Z,100411.69
2022-09-06T23:54:14.130Z,100407.28
2022-09-06T23:57:16.387Z,100407.28
